Terminal Aerodrome Forecast
Issued by NWS Charleston, WV

Home | Current Version | Previous Version | Text Only | Print | Product List | Glossary On
Versions: 1 2 3 4 5 6 7 8 9 10 11 12 13 14 15 16 17 18 19 20 21 22
000
FTUS41 KRLX 310848 AAA
TAFPKB
TAF AMD
KPKB 310848Z 3109/0106 00000KT 6SM BR SCT110
     FM311100 00000KT P6SM SCT060
     FM311400 VRB03KT P6SM BKN035
     FM312300 00000KT P6SM SCT050=

USA.gov is the U.S. government's official web portal to all federal, state and local government web resources and services.